Time;durP1;ratioP1;P1;durP2;ratioP2;P2;SDS_P1;SDS_P2;PMS_P1;PMS_P2;Temp;Humidity;BMP_temperature;BMP_pressure;BME280_temperature;BME280_humidity;BME280_pressure;Samples;Min_cycle;Max_cycle;Signal;HPM_P1;HPM_P2
2023/11/20 00:01:34;;;;;;;5.50;2.60;;;8.40;99.90;;;;;;5065067;28;20413;-58
2023/11/20 00:04:00;;;;;;;3.30;2.23;;;8.50;99.90;;;;;;5064511;28;20506;-58
2023/11/20 00:06:26;;;;;;;5.47;1.70;;;8.50;99.90;;;;;;5062085;28;20847;-58
2023/11/20 00:08:53;;;;;;;2.60;1.93;;;8.50;99.90;;;;;;5066208;28;20486;-58
2023/11/20 00:11:19;;;;;;;2.00;1.63;;;8.60;99.90;;;;;;5064229;28;20427;-58
2023/11/20 00:13:45;;;;;;;3.23;1.80;;;8.60;99.90;;;;;;5064141;28;20425;-59
2023/11/20 00:16:12;;;;;;;1.50;1.40;;;8.60;99.90;;;;;;5065228;28;20445;-58
2023/11/20 00:18:38;;;;;;;2.07;1.63;;;8.70;99.90;;;;;;5067907;28;20444;-59
2023/11/20 00:21:04;;;;;;;2.00;1.60;;;8.70;99.90;;;;;;5061193;28;20406;-57
2023/11/20 00:23:30;;;;;;;3.70;1.97;;;8.70;99.90;;;;;;5063750;28;20422;-59
2023/11/20 00:25:55;;;;;;;1.57;1.47;;;8.70;99.90;;;;;;5064964;28;20425;-59
2023/11/20 00:28:21;;;;;;;4.00;1.47;;;8.80;99.90;;;;;;5067534;28;20228;-58
2023/11/20 00:30:46;;;;;;;1.50;1.40;;;8.70;99.90;;;;;;5062822;28;20202;-58
2023/11/20 00:33:12;;;;;;;3.30;1.60;;;8.80;99.90;;;;;;5067823;28;20266;-59
2023/11/20 00:35:38;;;;;;;4.10;1.83;;;8.80;99.90;;;;;;5064116;28;20201;-58
2023/11/20 00:38:04;;;;;;;5.70;2.90;;;8.80;99.90;;;;;;5057168;28;20171;-58
2023/11/20 00:40:29;;;;;;;3.73;1.30;;;8.80;99.90;;;;;;5056157;28;20890;-59
2023/11/20 00:42:55;;;;;;;3.77;1.43;;;8.80;99.90;;;;;;5062032;28;20181;-58
2023/11/20 00:45:20;;;;;;;3.73;2.00;;;8.80;99.90;;;;;;5063128;28;20171;-58
2023/11/20 00:47:46;;;;;;;4.80;1.80;;;8.80;99.90;;;;;;5059867;28;20178;-58
2023/11/20 00:50:11;;;;;;;1.90;1.67;;;8.90;99.90;;;;;;5068121;28;20210;-59
2023/11/20 00:52:37;;;;;;;2.70;1.57;;;8.80;99.90;;;;;;5069049;28;20653;-58
2023/11/20 00:55:10;;;;;;;2.17;1.70;;;8.90;99.90;;;;;;5063601;28;20175;-57
2023/11/20 00:57:39;;;;;;;1.70;1.60;;;8.90;99.90;;;;;;5067864;28;20261;-58
2023/11/20 01:00:07;;;;;;;4.50;1.80;;;8.80;99.90;;;;;;5061274;28;20826;-58
2023/11/20 01:02:33;;;;;;;2.43;1.87;;;8.80;99.90;;;;;;5065936;28;20926;-62
2023/11/20 01:04:59;;;;;;;2.13;1.50;;;8.80;99.90;;;;;;5062418;28;20424;-59
2023/11/20 01:07:25;;;;;;;2.57;1.67;;;8.80;99.90;;;;;;5064888;28;20409;-58
2023/11/20 01:09:51;;;;;;;2.73;1.67;;;8.80;99.90;;;;;;5063512;28;20529;-59
2023/11/20 01:12:16;;;;;;;6.20;2.10;;;8.90;99.90;;;;;;5063346;28;20174;-58
2023/11/20 01:14:44;;;;;;;3.27;1.70;;;8.80;99.90;;;;;;5065129;28;20775;-58
2023/11/20 01:17:09;;;;;;;2.33;1.60;;;8.80;99.90;;;;;;5061150;28;20286;-59
2023/11/20 01:19:35;;;;;;;9.40;1.73;;;8.80;99.90;;;;;;5068975;28;21014;-59
2023/11/20 01:22:00;;;;;;;1.90;1.50;;;8.80;99.90;;;;;;5060424;28;20286;-58
2023/11/20 01:24:26;;;;;;;2.30;2.03;;;8.80;99.90;;;;;;5061776;28;20183;-58
2023/11/20 01:26:53;;;;;;;4.80;1.97;;;8.80;99.90;;;;;;5062226;28;20210;-59
2023/11/20 01:29:19;;;;;;;2.57;1.83;;;8.80;99.90;;;;;;5068143;28;20198;-57
2023/11/20 01:31:45;;;;;;;2.33;1.47;;;8.80;99.90;;;;;;5066005;28;20501;-58
2023/11/20 01:34:11;;;;;;;1.63;1.50;;;8.80;99.90;;;;;;5062487;28;20417;-60
2023/11/20 01:36:37;;;;;;;3.83;1.30;;;8.80;99.90;;;;;;5063141;28;20239;-58
2023/11/20 01:39:03;;;;;;;2.40;1.57;;;8.80;99.90;;;;;;5064022;28;20491;-58
2023/11/20 01:41:29;;;;;;;3.37;1.50;;;8.80;99.90;;;;;;5065947;28;20859;-59
2023/11/20 01:43:55;;;;;;;2.23;1.40;;;8.80;99.90;;;;;;5067914;28;20178;-59
2023/11/20 01:46:22;;;;;;;7.20;1.67;;;8.80;99.90;;;;;;5067105;28;20416;-59
2023/11/20 01:48:48;;;;;;;2.20;1.43;;;8.90;99.90;;;;;;5064191;28;20970;-58
2023/11/20 01:51:14;;;;;;;4.30;1.60;;;8.90;99.90;;;;;;5066677;28;20405;-58
2023/11/20 01:53:42;;;;;;;6.80;1.60;;;9.00;99.90;;;;;;5064228;28;20452;-59
2023/11/20 01:56:11;;;;;;;2.13;1.27;;;9.00;99.90;;;;;;5064002;28;20413;-58
2023/11/20 01:58:37;;;;;;;3.73;1.30;;;9.10;99.90;;;;;;5066134;28;20453;-59
2023/11/20 02:01:03;;;;;;;5.07;1.63;;;9.20;99.90;;;;;;5063549;28;20432;-59
2023/11/20 02:03:30;;;;;;;7.13;1.50;;;9.20;99.90;;;;;;5067563;28;20178;-59
2023/11/20 02:05:55;;;;;;;6.63;1.50;;;9.20;99.90;;;;;;5060142;28;20437;-58
2023/11/20 02:08:22;;;;;;;7.40;1.50;;;9.30;99.90;;;;;;5057901;28;20460;-59
2023/11/20 02:10:48;;;;;;;5.83;1.43;;;9.20;99.90;;;;;;5064631;28;20297;-58
2023/11/20 02:13:15;;;;;;;4.43;1.83;;;9.30;99.90;;;;;;5066920;28;20447;-60
2023/11/20 02:15:41;;;;;;;4.97;1.40;;;9.20;99.90;;;;;;5060249;28;20416;-59
2023/11/20 02:18:30;;;;;;;4.17;1.60;;;9.30;99.90;;;;;;5061806;28;20497;-59
2023/11/20 02:20:56;;;;;;;3.00;1.80;;;9.20;99.90;;;;;;5065687;28;20412;-59
2023/11/20 02:23:22;;;;;;;9.40;1.93;;;9.20;99.90;;;;;;5065213;28;20950;-59
2023/11/20 02:26:06;;;;;;;1.70;1.30;;;9.20;99.90;;;;;;5064175;28;20511;-59
2023/11/20 02:28:39;;;;;;;6.10;1.77;;;9.30;99.90;;;;;;5063913;28;20194;-58
2023/11/20 02:31:05;;;;;;;5.67;1.63;;;9.30;99.90;;;;;;5061885;28;20451;-59
2023/11/20 02:33:39;;;;;;;5.03;2.90;;;9.30;99.90;;;;;;5060334;28;20974;-59
2023/11/20 02:36:05;;;;;;;3.50;1.23;;;9.30;99.90;;;;;;5065981;28;20171;-59
2023/11/20 02:38:33;;;;;;;5.60;1.70;;;9.30;99.90;;;;;;5063524;28;20448;-59
2023/11/20 02:40:59;;;;;;;5.20;1.53;;;9.30;99.90;;;;;;5060182;28;20434;-56
2023/11/20 02:43:28;;;;;;;7.90;1.80;;;9.20;99.90;;;;;;5061836;28;20421;-58
2023/11/20 02:45:55;;;;;;;5.37;1.93;;;9.20;99.90;;;;;;5062263;28;20611;-59
2023/11/20 02:48:26;;;;;;;5.10;1.60;;;9.20;99.90;;;;;;5065610;28;20433;-59
2023/11/20 02:50:52;;;;;;;5.03;1.70;;;9.20;99.90;;;;;;5060458;28;20568;-58
2023/11/20 02:53:19;;;;;;;7.80;1.80;;;9.20;99.90;;;;;;5060520;28;20689;-59
2023/11/20 02:55:44;;;;;;;3.33;1.40;;;9.20;99.90;;;;;;5063193;28;21117;-59
2023/11/20 02:58:10;;;;;;;6.33;1.53;;;9.20;99.90;;;;;;5062904;28;20510;-59
2023/11/20 03:00:38;;;;;;;6.70;2.13;;;9.20;99.90;;;;;;5063911;28;20261;-59
2023/11/20 03:03:04;;;;;;;4.97;1.90;;;9.20;99.90;;;;;;5063982;28;20252;-58
2023/11/20 03:05:30;;;;;;;5.40;1.50;;;9.20;99.90;;;;;;5063456;28;20632;-58
2023/11/20 03:07:55;;;;;;;2.43;1.37;;;9.20;99.90;;;;;;5061834;28;20545;-58
2023/11/20 03:10:21;;;;;;;5.93;1.83;;;9.20;99.90;;;;;;5060492;28;20213;-59
2023/11/20 03:12:47;;;;;;;3.73;1.50;;;9.20;99.90;;;;;;5058974;28;20183;-58
2023/11/20 03:15:13;;;;;;;6.10;1.30;;;9.20;99.90;;;;;;5059556;28;20515;-59
2023/11/20 03:17:39;;;;;;;5.93;1.77;;;9.20;99.90;;;;;;5060112;28;20290;-59
2023/11/20 03:20:06;;;;;;;3.37;1.57;;;9.20;99.90;;;;;;5060855;28;20532;-58
2023/11/20 03:22:32;;;;;;;4.40;1.70;;;9.20;99.90;;;;;;5064273;28;20182;-58
2023/11/20 03:24:58;;;;;;;2.77;1.43;;;9.20;99.90;;;;;;5062910;28;20436;-59
2023/11/20 03:27:24;;;;;;;7.27;2.07;;;9.20;99.90;;;;;;5061136;28;20451;-59
2023/11/20 03:29:49;;;;;;;4.73;1.40;;;9.20;99.90;;;;;;5062355;28;20312;-59
2023/11/20 03:32:15;;;;;;;5.67;1.40;;;9.20;99.90;;;;;;5061090;28;20214;-59
2023/11/20 03:34:40;;;;;;;7.60;1.80;;;9.20;99.90;;;;;;5060921;28;20179;-59
2023/11/20 03:37:06;;;;;;;6.53;1.60;;;9.30;99.90;;;;;;5061822;28;20671;-59
2023/11/20 03:39:32;;;;;;;2.60;1.67;;;9.20;99.90;;;;;;5063500;28;20210;-58
2023/11/20 03:41:57;;;;;;;5.87;2.03;;;9.20;99.90;;;;;;5063149;28;20186;-59
2023/11/20 03:44:23;;;;;;;2.30;1.53;;;9.20;99.90;;;;;;5064363;28;20178;-59
2023/11/20 03:46:48;;;;;;;6.50;1.63;;;9.10;99.90;;;;;;5064898;28;20218;-58
2023/11/20 03:49:14;;;;;;;3.60;1.43;;;9.20;99.90;;;;;;5064443;28;20697;-59
2023/11/20 03:51:39;;;;;;;13.07;1.77;;;9.10;99.90;;;;;;5066363;28;20195;-59
2023/11/20 03:54:07;;;;;;;6.40;1.77;;;9.10;99.90;;;;;;5059124;28;20175;-58
2023/11/20 03:56:33;;;;;;;6.27;2.00;;;9.10;99.90;;;;;;5065775;28;20265;-59
2023/11/20 03:58:59;;;;;;;5.80;2.00;;;9.00;99.90;;;;;;5068592;28;20515;-59
2023/11/20 04:01:24;;;;;;;3.13;1.73;;;9.00;99.90;;;;;;5069055;28;20920;-59
2023/11/20 04:03:50;;;;;;;4.07;2.07;;;9.00;99.90;;;;;;5066321;28;20166;-59
2023/11/20 04:06:16;;;;;;;7.33;1.80;;;9.00;99.90;;;;;;5067600;28;20256;-58
2023/11/20 04:08:41;;;;;;;6.63;1.93;;;8.90;99.90;;;;;;5067942;28;20186;-59
2023/11/20 04:11:07;;;;;;;3.90;1.60;;;8.90;99.90;;;;;;5066142;28;20301;-59
2023/11/20 04:13:32;;;;;;;5.50;1.80;;;8.80;99.90;;;;;;5066818;28;20670;-58
2023/11/20 04:15:58;;;;;;;10.47;1.73;;;8.80;99.90;;;;;;5060254;28;20193;-59
2023/11/20 04:18:24;;;;;;;4.63;1.80;;;8.80;99.90;;;;;;5067926;28;20198;-59
2023/11/20 04:20:50;;;;;;;8.50;2.13;;;8.80;99.90;;;;;;5062529;28;20178;-58
2023/11/20 04:23:17;;;;;;;5.43;1.60;;;8.80;99.90;;;;;;5065417;28;20190;-58
2023/11/20 04:25:43;;;;;;;5.20;1.90;;;8.70;99.90;;;;;;5065605;28;20950;-59
2023/11/20 04:28:10;;;;;;;4.67;1.67;;;8.70;99.90;;;;;;5066020;28;20530;-58
2023/11/20 04:30:35;;;;;;;7.27;1.77;;;8.70;99.90;;;;;;5065461;28;20962;-60
2023/11/20 04:33:01;;;;;;;4.57;1.97;;;8.70;99.90;;;;;;5069607;28;20181;-57
2023/11/20 04:35:26;;;;;;;6.90;2.10;;;8.70;99.90;;;;;;5065373;28;20213;-59
2023/11/20 04:37:52;;;;;;;4.60;2.00;;;8.70;99.90;;;;;;5065082;28;20179;-58
2023/11/20 04:40:18;;;;;;;5.43;1.93;;;8.70;99.90;;;;;;5064881;28;20182;-58
2023/11/20 04:42:44;;;;;;;5.53;1.90;;;8.70;99.90;;;;;;5067079;28;20571;-59
2023/11/20 04:45:10;;;;;;;9.80;2.20;;;8.60;99.90;;;;;;5060308;28;20678;-60
2023/11/20 04:47:36;;;;;;;8.17;2.77;;;8.60;99.90;;;;;;5065814;28;20471;-58
2023/11/20 04:50:02;;;;;;;7.23;3.50;;;8.60;99.90;;;;;;5058314;28;20496;-58
2023/11/20 04:52:27;;;;;;;4.47;1.67;;;8.60;99.90;;;;;;5060248;28;20187;-60
2023/11/20 04:54:54;;;;;;;4.63;1.80;;;8.60;99.90;;;;;;5063007;28;20417;-59
2023/11/20 04:57:20;;;;;;;4.43;1.50;;;8.60;99.90;;;;;;5063997;28;20657;-59
2023/11/20 04:59:46;;;;;;;4.73;1.83;;;8.60;99.90;;;;;;5062964;28;20452;-59
2023/11/20 05:02:11;;;;;;;9.00;2.40;;;8.60;99.90;;;;;;5062713;28;20179;-59
2023/11/20 05:04:37;;;;;;;4.53;1.50;;;8.50;99.90;;;;;;5052211;28;20203;-60
2023/11/20 05:07:03;;;;;;;5.53;1.70;;;8.50;99.90;;;;;;5061500;28;20191;-58
2023/11/20 05:09:28;;;;;;;2.97;1.53;;;8.50;99.90;;;;;;5061869;28;20198;-59
2023/11/20 05:11:56;;;;;;;4.13;1.63;;;8.50;99.90;;;;;;5060598;28;20183;-59
2023/11/20 05:14:22;;;;;;;2.27;1.40;;;8.40;99.90;;;;;;5059939;28;20167;-60
2023/11/20 05:16:48;;;;;;;4.27;1.87;;;8.40;99.90;;;;;;5057947;28;20510;-58
2023/11/20 05:19:13;;;;;;;3.67;1.70;;;8.40;99.90;;;;;;5060129;28;20455;-60
2023/11/20 05:21:44;;;;;;;9.63;2.00;;;8.40;99.90;;;;;;5057983;28;20563;-59
2023/11/20 05:24:10;;;;;;;10.87;1.60;;;8.40;99.90;;;;;;5055919;28;20190;-60
2023/11/20 05:26:37;;;;;;;5.70;2.00;;;8.40;99.90;;;;;;5059597;28;20445;-59
2023/11/20 05:29:05;;;;;;;3.47;1.50;;;8.40;99.90;;;;;;5062089;28;20453;-58
2023/11/20 05:31:31;;;;;;;12.50;2.30;;;8.40;99.90;;;;;;5057336;28;20446;-59
2023/11/20 05:33:56;;;;;;;5.90;1.70;;;8.40;99.90;;;;;;5064187;28;20484;-57
2023/11/20 05:36:22;;;;;;;9.40;1.87;;;8.40;99.90;;;;;;5066626;28;20985;-59
2023/11/20 05:38:48;;;;;;;7.20;2.60;;;8.40;99.90;;;;;;5065387;28;20208;-58
2023/11/20 05:41:13;;;;;;;15.87;2.40;;;8.30;99.90;;;;;;5061897;28;20357;-59
2023/11/20 05:43:42;;;;;;;6.07;1.73;;;8.30;99.90;;;;;;5063551;28;20190;-58
2023/11/20 05:46:07;;;;;;;4.87;2.10;;;8.30;99.90;;;;;;5062743;28;20186;-59
2023/11/20 05:48:33;;;;;;;3.10;1.60;;;8.30;99.90;;;;;;5066583;28;20440;-58
2023/11/20 05:50:59;;;;;;;5.87;1.60;;;8.30;99.90;;;;;;5057974;28;20214;-59
2023/11/20 05:53:24;;;;;;;6.10;2.07;;;8.30;99.90;;;;;;5060988;28;20183;-59
2023/11/20 05:55:50;;;;;;;6.73;1.77;;;8.30;99.90;;;;;;5059785;28;20202;-59
2023/11/20 05:58:15;;;;;;;6.20;1.80;;;8.30;99.90;;;;;;5062120;28;20233;-58
2023/11/20 06:00:41;;;;;;;4.47;1.90;;;8.30;99.90;;;;;;5062912;28;20209;-59
2023/11/20 06:03:07;;;;;;;5.60;1.87;;;8.30;99.90;;;;;;5064866;28;20213;-58
2023/11/20 06:05:33;;;;;;;5.73;2.50;;;8.30;99.90;;;;;;5060273;28;20444;-58
2023/11/20 06:07:59;;;;;;;5.67;2.83;;;8.30;99.90;;;;;;5063389;28;20179;-59
2023/11/20 06:10:24;;;;;;;13.43;2.53;;;8.30;99.90;;;;;;5066574;28;20201;-58
2023/11/20 06:12:51;;;;;;;6.27;2.70;;;8.30;99.90;;;;;;5067119;28;20197;-57
2023/11/20 06:15:17;;;;;;;8.97;2.17;;;8.30;99.90;;;;;;5059958;28;20187;-59
2023/11/20 06:17:44;;;;;;;6.83;2.43;;;8.30;99.90;;;;;;5055337;28;20463;-58
2023/11/20 06:20:10;;;;;;;5.10;1.90;;;8.20;99.90;;;;;;5061346;28;20502;-59
2023/11/20 06:22:36;;;;;;;6.73;2.77;;;8.20;99.90;;;;;;5064786;28;20485;-58
2023/11/20 06:25:04;;;;;;;7.93;2.17;;;8.20;99.90;;;;;;5062255;28;20919;-58
2023/11/20 06:27:30;;;;;;;4.00;2.03;;;8.20;99.90;;;;;;5062757;28;20440;-61
2023/11/20 06:29:55;;;;;;;3.70;2.20;;;8.10;99.90;;;;;;5064811;28;20994;-58
2023/11/20 06:32:22;;;;;;;5.07;2.50;;;8.10;99.90;;;;;;5063257;28;20231;-58
2023/11/20 06:34:48;;;;;;;8.67;2.90;;;8.10;99.90;;;;;;5065863;28;20680;-58
2023/11/20 06:37:16;;;;;;;8.30;3.40;;;8.10;99.90;;;;;;5061962;28;20479;-59
2023/11/20 06:39:41;;;;;;;8.60;3.07;;;8.10;99.90;;;;;;5064116;28;20264;-59
2023/11/20 06:42:08;;;;;;;7.50;2.13;;;8.10;99.90;;;;;;5066810;28;20420;-59
2023/11/20 06:44:37;;;;;;;10.23;2.63;;;8.10;99.90;;;;;;5064550;28;20182;-58
2023/11/20 06:47:03;;;;;;;3.60;2.10;;;8.10;99.90;;;;;;5063545;28;20432;-58
2023/11/20 06:49:29;;;;;;;10.30;2.10;;;8.20;99.90;;;;;;5063071;28;20468;-60
2023/11/20 06:51:55;;;;;;;6.33;1.97;;;8.10;99.90;;;;;;5058030;28;20928;-59
2023/11/20 06:54:20;;;;;;;4.10;2.23;;;8.10;99.90;;;;;;5058383;28;20198;-59
2023/11/20 06:56:46;;;;;;;7.13;2.40;;;8.20;99.90;;;;;;5053782;28;20541;-58
2023/11/20 06:59:11;;;;;;;5.27;3.10;;;8.20;99.90;;;;;;5063495;28;20346;-58
2023/11/20 07:01:44;;;;;;;4.53;2.43;;;8.20;99.90;;;;;;5055773;28;20190;-59
2023/11/20 07:04:09;;;;;;;5.80;2.33;;;8.10;99.90;;;;;;5057139;28;20261;-59
2023/11/20 07:06:37;;;;;;;7.10;2.43;;;8.10;99.90;;;;;;5066288;28;20524;-58
2023/11/20 07:09:12;;;;;;;11.53;2.47;;;8.10;99.90;;;;;;5058140;28;20197;-58
2023/11/20 07:11:37;;;;;;;8.07;2.33;;;8.00;99.90;;;;;;5065930;28;20930;-58
2023/11/20 07:14:03;;;;;;;6.43;3.03;;;8.00;99.90;;;;;;5064498;28;20447;-59
2023/11/20 07:16:29;;;;;;;6.13;3.40;;;7.90;99.90;;;;;;5061394;28;20191;-59
2023/11/20 07:18:55;;;;;;;15.93;3.37;;;7.90;99.90;;;;;;5064776;28;20210;-58
2023/11/20 07:21:20;;;;;;;9.40;3.60;;;7.90;99.90;;;;;;5065534;28;20186;-58
2023/11/20 07:23:46;;;;;;;11.70;3.40;;;7.80;99.90;;;;;;5066444;28;20633;-59
2023/11/20 07:26:18;;;;;;;8.17;3.40;;;7.90;99.90;;;;;;5062086;28;20167;-59
2023/11/20 07:28:46;;;;;;;12.83;3.17;;;7.80;99.90;;;;;;5068359;28;20203;-58
2023/11/20 07:31:12;;;;;;;9.20;4.07;;;7.80;99.90;;;;;;5059870;28;20830;-58
2023/11/20 07:33:38;;;;;;;10.43;3.80;;;7.80;99.90;;;;;;5068480;28;20936;-58
2023/11/20 07:36:05;;;;;;;13.93;4.20;;;7.80;99.90;;;;;;5067406;28;20424;-58
2023/11/20 07:38:30;;;;;;;7.57;4.33;;;7.80;99.90;;;;;;5067592;28;20818;-60
2023/11/20 07:40:56;;;;;;;8.50;2.77;;;7.80;99.90;;;;;;5061740;28;20428;-58
2023/11/20 07:43:22;;;;;;;12.90;3.83;;;7.80;99.90;;;;;;5065726;28;20179;-59
2023/11/20 07:45:47;;;;;;;9.10;3.20;;;7.80;99.90;;;;;;5064769;28;20175;-58
2023/11/20 07:48:13;;;;;;;8.73;3.87;;;7.90;99.90;;;;;;5062669;28;20181;-58
2023/11/20 07:50:39;;;;;;;11.60;3.23;;;7.90;99.90;;;;;;5065521;28;20195;-59
2023/11/20 07:53:04;;;;;;;5.97;2.60;;;8.00;99.90;;;;;;5059082;28;20266;-58
2023/11/20 07:55:30;;;;;;;8.60;4.20;;;8.10;99.90;;;;;;5060624;28;20523;-59
2023/11/20 07:57:56;;;;;;;13.50;5.60;;;8.10;99.90;;;;;;5060964;28;20252;-58
2023/11/20 08:00:21;;;;;;;12.27;5.60;;;8.10;99.90;;;;;;5056121;28;20197;-59
2023/11/20 08:02:48;;;;;;;11.30;4.40;;;8.20;99.90;;;;;;5059821;28;20668;-57
2023/11/20 08:05:18;;;;;;;7.70;3.87;;;8.20;99.90;;;;;;5066302;28;20170;-58
2023/11/20 08:07:44;;;;;;;13.30;4.47;;;8.30;99.90;;;;;;5064828;28;20413;-58
2023/11/20 08:10:10;;;;;;;9.17;3.60;;;8.30;99.90;;;;;;5061765;28;20461;-58
2023/11/20 08:12:36;;;;;;;9.70;2.30;;;8.30;99.90;;;;;;5066354;28;20724;-57
2023/11/20 08:15:05;;;;;;;11.50;2.43;;;8.30;99.90;;;;;;5060415;28;21190;-58
2023/11/20 08:17:31;;;;;;;5.83;2.27;;;8.40;99.90;;;;;;5063034;28;20604;-58
2023/11/20 08:19:56;;;;;;;5.97;2.10;;;8.40;99.90;;;;;;5066133;28;20531;-57
2023/11/20 08:22:22;;;;;;;8.67;2.03;;;8.40;99.90;;;;;;5065114;28;20177;-59
2023/11/20 08:24:47;;;;;;;13.07;2.00;;;8.50;99.90;;;;;;5063781;28;20254;-58
2023/11/20 08:27:13;;;;;;;11.47;2.20;;;8.50;99.90;;;;;;5061930;28;20170;-58
2023/11/20 08:29:39;;;;;;;5.97;1.63;;;8.60;99.90;;;;;;5048332;28;20206;-58
2023/11/20 08:32:05;;;;;;;10.27;2.20;;;8.60;99.90;;;;;;5058286;28;20269;-57
2023/11/20 08:34:30;;;;;;;7.83;2.00;;;8.70;99.90;;;;;;5065776;28;20688;-59
2023/11/20 08:36:56;;;;;;;4.53;1.93;;;8.80;99.90;;;;;;5061458;28;20416;-59
2023/11/20 08:39:24;;;;;;;8.73;2.20;;;8.80;99.90;;;;;;5062553;28;20206;-58
2023/11/20 08:41:50;;;;;;;3.17;1.73;;;8.80;99.90;;;;;;5061963;28;20183;-59
2023/11/20 08:44:16;;;;;;;14.23;2.43;;;8.90;99.90;;;;;;5066192;28;20423;-58
2023/11/20 08:46:43;;;;;;;6.30;1.67;;;8.90;99.90;;;;;;5061769;28;20205;-59
2023/11/20 08:49:08;;;;;;;9.97;2.17;;;8.90;99.90;;;;;;5061400;28;20206;-58
2023/11/20 08:51:34;;;;;;;7.03;2.07;;;8.90;99.90;;;;;;5065303;28;20436;-59
2023/11/20 08:54:01;;;;;;;5.67;2.10;;;9.00;99.90;;;;;;5064425;28;20711;-59
2023/11/20 08:56:26;;;;;;;5.70;1.80;;;9.00;99.90;;;;;;5065321;28;20259;-58
2023/11/20 08:58:52;;;;;;;6.03;2.10;;;9.10;99.90;;;;;;5066744;28;20528;-58
2023/11/20 09:01:33;;;;;;;6.93;2.13;;;9.20;99.90;;;;;;5058495;28;20193;-58
2023/11/20 09:04:05;;;;;;;3.93;2.23;;;9.20;99.90;;;;;;5062173;28;20189;-58
2023/11/20 09:06:32;;;;;;;7.13;2.30;;;9.30;99.90;;;;;;5063674;28;20545;-59
2023/11/20 09:08:57;;;;;;;9.40;2.43;;;9.30;99.90;;;;;;5062394;28;20449;-58
2023/11/20 09:11:24;;;;;;;7.40;2.30;;;9.40;99.90;;;;;;5068164;28;20444;-59
2023/11/20 09:13:52;;;;;;;11.17;3.70;;;9.50;99.90;;;;;;5067952;28;20576;-58
2023/11/20 09:16:20;;;;;;;15.27;2.93;;;9.50;99.90;;;;;;5059582;28;20598;-60
2023/11/20 09:18:46;;;;;;;7.10;2.20;;;9.70;99.90;;;;;;5064736;28;20506;-58
2023/11/20 09:21:13;;;;;;;4.97;2.50;;;9.80;99.90;;;;;;5060921;28;20433;-58
2023/11/20 09:23:38;;;;;;;6.60;2.70;;;9.80;99.90;;;;;;5063596;28;20447;-58
2023/11/20 09:26:08;;;;;;;7.60;2.57;;;9.90;99.90;;;;;;5067387;28;20934;-58
2023/11/20 09:28:34;;;;;;;7.43;2.13;;;9.90;99.40;;;;;;5063861;28;20709;-58
2023/11/20 09:30:59;;;;;;;18.47;2.57;;;9.90;99.40;;;;;;5065282;28;20464;-58
2023/11/20 09:33:25;;;;;;;10.23;2.10;;;9.90;97.60;;;;;;5068637;28;20174;-58
2023/11/20 09:35:51;;;;;;;11.40;2.37;;;9.90;96.40;;;;;;5062141;28;20892;-58
2023/11/20 09:38:18;;;;;;;5.30;2.20;;;9.90;96.90;;;;;;5065179;28;20202;-58
2023/11/20 09:40:45;;;;;;;8.67;1.87;;;9.90;95.00;;;;;;5064026;28;20419;-58
2023/11/20 09:43:11;;;;;;;8.03;2.13;;;9.90;95.60;;;;;;5067978;28;20421;-59
2023/11/20 09:45:40;;;;;;;14.03;5.23;;;9.90;96.30;;;;;;5057586;28;20437;-58
2023/11/20 09:48:07;;;;;;;8.10;2.03;;;9.90;96.80;;;;;;5063377;28;20444;-59
2023/11/20 09:50:33;;;;;;;6.33;1.97;;;9.90;90.80;;;;;;5063121;28;20464;-58
2023/11/20 09:52:59;;;;;;;7.83;2.03;;;9.90;93.00;;;;;;5063449;28;20497;-59
2023/11/20 09:55:25;;;;;;;5.17;1.77;;;9.90;89.80;;;;;;5066603;28;20220;-59
2023/11/20 09:57:51;;;;;;;4.03;1.50;;;9.90;90.40;;;;;;5065630;28;20428;-59
2023/11/20 10:00:18;;;;;;;7.60;2.10;;;9.80;87.40;;;;;;5066344;28;20497;-59
2023/11/20 10:02:47;;;;;;;8.50;1.57;;;9.80;80.60;;;;;;5054628;28;20436;-58
2023/11/20 10:05:20;;;;;;;3.47;1.87;;;9.80;84.40;;;;;;5057622;28;20437;-59
2023/11/20 10:07:48;;;;;;;9.00;2.03;;;9.80;82.80;;;;;;5062636;28;20511;-60
2023/11/20 10:10:16;;;;;;;5.10;1.90;;;9.80;82.00;;;;;;5057177;28;20470;-59
2023/11/20 10:12:43;;;;;;;11.83;2.30;;;9.80;82.80;;;;;;5065352;28;20417;-58
2023/11/20 10:15:12;;;;;;;5.93;1.80;;;9.70;85.10;;;;;;5067322;28;20415;-59
2023/11/20 10:17:37;;;;;;;6.67;1.93;;;9.70;87.40;;;;;;5064365;28;20510;-58
2023/11/20 10:20:09;;;;;;;6.20;2.00;;;9.80;88.30;;;;;;5062996;28;20483;-58
2023/11/20 10:22:35;;;;;;;7.30;2.20;;;9.90;83.20;;;;;;5063202;28;20183;-59
2023/11/20 10:25:05;;;;;;;5.83;1.60;;;10.00;84.30;;;;;;5061732;28;20517;-58
2023/11/20 10:27:31;;;;;;;6.13;1.80;;;10.00;86.20;;;;;;5066838;28;20429;-59
2023/11/20 10:29:57;;;;;;;5.70;1.57;;;10.20;81.40;;;;;;5058655;28;21021;-59
2023/11/20 10:32:25;;;;;;;5.30;2.10;;;10.30;85.60;;;;;;5063852;28;20186;-59
2023/11/20 10:35:17;;;;;;;9.03;1.90;;;10.40;81.60;;;;;;5059007;28;20175;-58
2023/11/20 10:37:58;;;;;;;5.83;1.73;;;10.50;85.40;;;;;;5056895;28;20795;-59
2023/11/20 10:40:30;;;;;;;10.30;1.97;;;10.70;78.00;;;;;;5061664;28;20449;-59
2023/11/20 10:42:57;;;;;;;8.67;1.60;;;10.80;73.40;;;;;;5066414;28;21048;-59
2023/11/20 10:45:24;;;;;;;6.80;2.10;;;11.00;70.20;;;;;;5062512;28;20532;-58
2023/11/20 10:47:51;;;;;;;7.27;1.70;;;11.10;72.50;;;;;;5063135;28;20425;-59
2023/11/20 10:50:18;;;;;;;9.13;2.10;;;11.20;67.10;;;;;;5058040;28;20465;-58
2023/11/20 10:52:46;;;;;;;7.53;2.10;;;11.20;67.20;;;;;;5059009;28;20429;-58
2023/11/20 10:55:12;;;;;;;8.40;2.00;;;11.10;67.00;;;;;;5055974;28;20420;-58
2023/11/20 10:57:39;;;;;;;5.67;1.80;;;11.10;67.10;;;;;;5064902;28;20814;-58
2023/11/20 11:00:14;;;;;;;4.93;2.03;;;11.20;68.90;;;;;;5054415;28;20687;-58
2023/11/20 11:02:44;;;;;;;6.63;2.40;;;11.20;67.20;;;;;;5054983;28;20444;-59
2023/11/20 11:05:12;;;;;;;5.30;1.80;;;11.20;67.40;;;;;;5057344;28;20435;-58
2023/11/20 11:07:42;;;;;;;6.30;1.83;;;11.20;67.10;;;;;;5060631;28;21150;-59
2023/11/20 11:10:10;;;;;;;5.70;1.73;;;11.30;67.20;;;;;;5062719;28;20755;-59
2023/11/20 11:12:46;;;;;;;4.00;2.00;;;11.30;66.90;;;;;;5062994;28;20436;-58
2023/11/20 11:15:15;;;;;;;5.83;1.73;;;11.40;67.20;;;;;;5065433;28;20502;-58
2023/11/20 11:18:04;;;;;;;5.20;1.50;;;11.30;65.70;;;;;;5060000;28;20480;-58
2023/11/20 11:20:35;;;;;;;3.87;1.80;;;11.30;65.70;;;;;;5057476;28;20437;-59
2023/11/20 11:23:08;;;;;;;1.90;1.40;;;11.20;65.40;;;;;;5066911;28;20440;-59
2023/11/20 11:25:38;;;;;;;8.83;2.27;;;11.10;67.50;;;;;;5063375;28;20433;-58
2023/11/20 11:28:09;;;;;;;7.13;2.70;;;11.10;67.30;;;;;;5062767;28;20996;-58
2023/11/20 11:30:38;;;;;;;12.47;1.80;;;11.10;66.90;;;;;;5057582;28;20480;-59
2023/11/20 11:33:22;;;;;;;2.70;1.80;;;11.20;67.30;;;;;;5060133;28;20854;-58
2023/11/20 11:35:56;;;;;;;6.40;1.80;;;11.10;69.10;;;;;;5051353;28;20484;-57
2023/11/20 11:38:44;;;;;;;5.27;1.40;;;11.10;71.10;;;;;;5062966;28;20437;-59
2023/11/20 11:41:29;;;;;;;2.43;1.53;;;11.00;68.00;;;;;;5059940;28;20418;-59
2023/11/20 11:44:01;;;;;;;4.80;1.70;;;10.90;66.40;;;;;;5061213;28;20949;-58
2023/11/20 11:46:27;;;;;;;6.70;1.70;;;10.70;65.90;;;;;;5060329;28;20486;-59
2023/11/20 11:48:54;;;;;;;6.57;1.60;;;10.60;65.60;;;;;;5055484;28;20842;-59
2023/11/20 11:51:21;;;;;;;7.00;1.50;;;10.50;66.10;;;;;;5067222;28;20969;-58
2023/11/20 11:54:13;;;;;;;8.23;1.40;;;10.50;67.10;;;;;;5060880;28;20431;-59
2023/11/20 11:56:47;;;;;;;5.13;1.30;;;10.50;67.70;;;;;;5053953;28;20430;-59
2023/11/20 11:59:22;;;;;;;2.90;1.23;;;10.50;67.60;;;;;;5060638;28;20523;-59
2023/11/20 12:01:48;;;;;;;3.40;1.20;;;10.50;66.10;;;;;;5065624;28;20424;-60
2023/11/20 12:04:49;;;;;;;3.80;1.23;;;10.60;66.70;;;;;;5066522;28;20425;-58
2023/11/20 12:07:33;;;;;;;3.30;1.50;;;10.60;66.50;;;;;;5066728;28;20189;-59
2023/11/20 12:09:59;;;;;;;4.33;1.80;;;10.60;66.80;;;;;;5062880;28;20985;-59
2023/11/20 12:12:48;;;;;;;4.93;1.40;;;10.60;66.50;;;;;;5068327;28;20425;-58
2023/11/20 12:15:39;;;;;;;4.43;1.57;;;10.70;67.30;;;;;;5067791;28;20182;-58
2023/11/20 12:18:18;;;;;;;7.60;1.43;;;10.80;67.40;;;;;;5057315;28;20940;-59
2023/11/20 12:20:51;;;;;;;4.53;1.70;;;10.80;64.70;;;;;;5059291;28;20443;-59
2023/11/20 12:23:32;;;;;;;4.73;2.07;;;10.80;64.70;;;;;;5065571;28;20874;-59
2023/11/20 12:26:00;;;;;;;11.23;2.20;;;10.80;65.50;;;;;;5066834;28;20440;-58
2023/11/20 12:28:32;;;;;;;8.23;1.77;;;10.80;66.60;;;;;;5060085;28;20449;-59
2023/11/20 12:31:02;;;;;;;7.37;1.60;;;10.80;65.10;;;;;;5059334;28;20463;-59
2023/11/20 12:33:29;;;;;;;6.60;1.80;;;10.80;64.60;;;;;;5057636;28;20440;-59
2023/11/20 12:35:55;;;;;;;11.13;2.07;;;10.80;65.30;;;;;;5065442;28;20574;-55
2023/11/20 12:38:21;;;;;;;11.87;1.80;;;10.70;63.70;;;;;;5059737;28;20600;-56
2023/11/20 12:40:51;;;;;;;5.37;1.80;;;10.70;65.40;;;;;;5065290;28;20412;-56
2023/11/20 12:43:21;;;;;;;6.43;2.23;;;10.60;64.80;;;;;;5063139;28;20466;-57
2023/11/20 12:45:48;;;;;;;5.73;1.67;;;10.50;63.60;;;;;;5060853;28;20421;-55
2023/11/20 12:48:14;;;;;;;6.03;1.93;;;10.50;62.90;;;;;;5059677;28;20977;-56
2023/11/20 12:50:44;;;;;;;12.40;1.90;;;10.50;62.70;;;;;;5063107;28;20537;-55
2023/11/20 12:53:10;;;;;;;3.60;1.20;;;10.50;62.50;;;;;;5057997;28;20426;-56
2023/11/20 12:55:36;;;;;;;9.63;1.80;;;10.50;61.80;;;;;;5061021;28;20435;-56